Search for airport 
image banner adimage banner adimage banner ad
image banner ad

PN19 - Hunts Cove

Located in Foxburg, United States

ICAO - PN19, IATA -

Data provided by Airmate  

General information

Coordinates: N41°8'45" W79°41'14"
Elevation is 840 feet MSL.
Magnetic variation is -08° East
View others Airports in Pennsylvania

Operational data

Special qualification required
Current time UTC:
Current local time:
Weather at : KFKL - Venango Rgnl ( 30 km )
METAR: KFKL 071304Z AUTO 00000KT 10SM -RA OVC029 04/03 A2990 RMK AO2 P0001
TAF: KFKL 071133Z 0712/0812 36004KT 5SM -SHRA OVC020 FM071300 31004KT 3SM -SHRA OVC010 FM072000 31007KT P6SM BKN015 FM072300 31007KT P6SM BKN025 FM080600 00000KT P6SM VCSH BKN025
View NOTAMs / SUP AIP / TFR affecting this airport [VIEW]
Communications frequencies: [VIEW]

Runways:

RWY identifierQFULength (ft)Width (ft)SurfaceLDA (ft)
02W7500500WATER
20W7500500WATER
16W6500500WATER
34W6500500WATER

Airport contact information

Address: Foxburg United States

Satellite view of PN19